Time;durP1;ratioP1;P1;durP2;ratioP2;P2;SDS_P1;SDS_P2;PMS_P1;PMS_P2;Temp;Humidity;BMP_temperature;BMP_pressure;BME280_temperature;BME280_humidity;BME280_pressure;Samples;Min_cycle;Max_cycle;Signal;HPM_P1;HPM_P2
2022/01/30 00:01:21;;;;;;;7.22;3.17;;;;;;;-0.03;60.41;99310.96;1838481;77;20989;-81
2022/01/30 00:03:47;;;;;;;7.75;3.62;;;;;;;-0.04;60.19;99306.70;1805996;79;21000;-82
2022/01/30 00:06:13;;;;;;;7.47;3.33;;;;;;;-0.01;60.16;99302.05;1830940;78;20984;-82
2022/01/30 00:08:40;;;;;;;9.50;3.02;;;;;;;0.00;60.48;99296.12;1841710;76;21024;-82
2022/01/30 00:11:14;;;;;;;14.87;3.42;;;;;;;-0.01;60.35;99297.80;1868842;76;21120;-83
2022/01/30 00:13:35;;;;;;;6.33;3.08;;;;;;;0.00;60.62;99298.69;1808084;76;21071;-81
2022/01/30 00:16:05;;;;;;;6.22;2.80;;;;;;;-0.04;60.53;99299.03;1780235;79;20991;-82
2022/01/30 00:18:45;;;;;;;8.90;3.35;;;;;;;0.01;60.50;99291.87;1782755;76;21054;-80
2022/01/30 00:21:10;;;;;;;6.22;2.92;;;;;;;-0.02;60.71;99292.25;1783107;80;21014;-82
2022/01/30 00:23:34;;;;;;;6.10;2.55;;;;;;;-0.02;60.97;99283.70;1771768;77;21127;-73
2022/01/30 00:26:03;;;;;;;6.90;3.20;;;;;;;-0.04;61.32;99281.53;1771006;81;21116;-81
2022/01/30 00:28:31;;;;;;;7.17;3.47;;;;;;;-0.10;61.38;99268.63;1770759;81;21004;-81
2022/01/30 00:31:20;;;;;;;8.15;3.52;;;;;;;-0.07;61.48;99267.42;1692623;77;21082;-82
2022/01/30 00:33:46;;;;;;;6.87;3.27;;;;;;;-0.08;61.59;99279.74;1690199;83;21054;-82
2022/01/30 00:36:13;;;;;;;10.43;3.70;;;;;;;-0.06;61.46;99270.41;1706624;77;20988;-73
2022/01/30 00:38:44;;;;;;;9.18;3.65;;;;;;;-0.07;61.47;99277.23;1785537;77;21020;31
2022/01/30 00:41:12;;;;;;;9.65;3.42;;;;;;;-0.05;61.48;99274.70;1756467;79;21003;-85
2022/01/30 00:43:39;;;;;;;8.28;3.27;;;;;;;0.01;61.43;99272.70;1700424;82;20980;-84
2022/01/30 00:46:05;;;;;;;8.55;2.95;;;;;;;-0.03;61.67;99278.16;1756616;79;20980;-83
2022/01/30 00:48:31;;;;;;;7.33;2.80;;;;;;;-0.02;61.72;99260.70;1700585;82;21017;-84
2022/01/30 00:50:59;;;;;;;8.75;3.33;;;;;;;0.03;61.69;99256.55;1754081;79;20980;-81
2022/01/30 00:53:26;;;;;;;7.55;2.80;;;;;;;0.01;61.88;99243.30;1775487;77;21043;-81
2022/01/30 00:55:52;;;;;;;5.80;2.72;;;;;;;0.02;61.91;99231.84;1783190;79;21002;-82
2022/01/30 00:58:19;;;;;;;7.92;3.42;;;;;;;-0.01;63.03;99239.44;1744892;78;21057;-81
2022/01/30 01:00:45;;;;;;;5.15;2.75;;;;;;;-0.03;63.18;99213.84;1728095;81;20988;-81
2022/01/30 01:03:12;;;;;;;8.05;2.72;;;;;;;-0.03;63.98;99210.00;1741847;79;21065;-74
2022/01/30 01:05:39;;;;;;;5.58;2.75;;;;;;;-0.03;64.33;99206.59;1766796;81;20991;-82
2022/01/30 01:11:27;;;;;;;5.03;2.33;;;;;;;-0.04;64.19;99195.52;1760722;78;21062;-81
2022/01/30 01:13:51;;;;;;;7.58;3.00;;;;;;;-0.04;65.14;99186.96;1774121;78;20975;-81
2022/01/30 01:24:07;;;;;;;8.53;2.60;;;;;;;0.04;67.02;99167.94;1787006;78;21063;31
2022/01/30 01:26:36;;;;;;;5.70;2.22;;;;;;;0.05;68.32;99150.08;1790024;79;21027;-83
2022/01/30 01:29:05;;;;;;;8.45;3.33;;;;;;;0.09;67.83;99158.25;1788314;79;21120;-84
2022/01/30 01:31:32;;;;;;;5.50;2.70;;;;;;;0.09;67.16;99140.34;1790987;76;21141;-77
2022/01/30 01:34:12;;;;;;;7.60;2.50;;;;;;;0.09;67.18;99136.52;1767774;80;21010;-81
2022/01/30 01:36:28;;;;;;;9.38;2.70;;;;;;;0.09;66.91;99132.68;1767386;80;21005;-80
2022/01/30 01:39:16;;;;;;;4.90;2.47;;;;;;;0.08;67.06;99124.98;1771277;76;22444;31
2022/01/30 01:41:42;;;;;;;6.40;2.08;;;;;;;0.12;66.71;99116.53;1720658;81;21075;-83
2022/01/30 01:44:18;;;;;;;4.22;2.40;;;;;;;0.14;66.65;99109.34;1720678;81;21043;-82
2022/01/30 01:47:06;;;;;;;6.60;2.90;;;;;;;0.14;66.32;99095.29;1731619;79;21103;31
2022/01/30 01:52:21;;;;;;;6.05;2.90;;;;;;;0.16;65.96;99074.44;1771452;78;21073;-82
2022/01/30 01:54:58;;;;;;;5.62;2.72;;;;;;;0.16;65.79;99073.16;1775650;77;21062;-81
2022/01/30 02:00:25;;;;;;;7.60;2.90;;;;;;;0.17;65.48;99050.58;1711785;79;21023;31
2022/01/30 02:02:55;;;;;;;7.30;2.90;;;;;;;0.22;65.22;99042.12;1735102;76;21134;31
2022/01/30 02:05:31;;;;;;;5.50;2.70;;;;;;;0.22;65.09;99044.28;1731719;79;21043;-81
2022/01/30 02:12:54;;;;;;;10.18;3.47;;;;;;;0.34;64.51;99055.12;1767108;79;21036;-81
2022/01/30 02:24:02;;;;;;;6.70;3.22;;;;;;;0.50;64.50;99026.79;1766018;76;21112;-81
2022/01/30 02:26:26;;;;;;;7.03;2.75;;;;;;;0.53;64.40;99012.75;1750724;80;20978;-81
2022/01/30 02:28:55;;;;;;;6.90;2.75;;;;;;;0.53;64.78;99003.36;1818839;76;21061;-83
2022/01/30 02:31:22;;;;;;;7.22;2.95;;;;;;;0.56;64.48;98997.02;1824596;78;21028;-81
2022/01/30 02:34:03;;;;;;;9.13;2.90;;;;;;;0.59;64.47;98991.08;1813528;77;21138;31
2022/01/30 02:36:29;;;;;;;7.70;3.50;;;;;;;0.61;64.56;98983.00;1761756;80;21135;-82
2022/01/30 02:39:08;;;;;;;6.15;3.55;;;;;;;0.62;64.49;98968.51;1769498;76;21038;31
2022/01/30 02:41:35;;;;;;;5.92;2.52;;;;;;;0.57;64.67;98951.40;1823271;77;21673;-84
2022/01/30 02:44:13;;;;;;;4.40;2.45;;;;;;;0.61;64.61;98916.91;1842845;74;20962;-83
2022/01/30 02:46:40;;;;;;;7.42;3.10;;;;;;;0.57;65.09;98908.34;1853497;76;21022;-82
2022/01/30 02:49:24;;;;;;;6.20;3.12;;;;;;;0.58;65.10;98895.57;1848171;75;20955;-83
2022/01/30 02:51:35;;;;;;;11.83;3.60;;;;;;;0.58;65.21;98896.00;1775726;74;21071;-81
2022/01/30 02:54:05;;;;;;;6.33;2.98;;;;;;;0.58;65.13;98893.44;1740130;81;20979;-82
2022/01/30 02:56:35;;;;;;;9.33;3.42;;;;;;;0.60;64.89;98881.53;1757922;78;20987;-82
2022/01/30 02:59:02;;;;;;;5.75;3.00;;;;;;;0.58;64.62;98864.87;1740767;82;20999;-85
2022/01/30 03:01:28;;;;;;;5.37;2.75;;;;;;;0.53;63.94;98840.92;1747899;80;20993;-81
2022/01/30 03:03:55;;;;;;;6.72;3.50;;;;;;;0.54;63.85;98838.82;1755474;79;21042;-82
2022/01/30 03:06:22;;;;;;;7.80;3.20;;;;;;;0.54;63.83;98836.27;1740035;80;21015;-82
2022/01/30 03:08:48;;;;;;;10.80;3.15;;;;;;;0.52;63.73;98841.78;1738451;81;21022;-81
2022/01/30 03:11:15;;;;;;;10.03;2.95;;;;;;;0.50;63.62;98828.55;1733824;82;21468;-82
2022/01/30 03:13:41;;;;;;;13.48;3.58;;;;;;;0.48;63.95;98842.99;1757742;82;21003;-82
2022/01/30 03:16:22;;;;;;;10.80;3.77;;;;;;;0.49;64.13;98836.63;1762468;77;20967;31
2022/01/30 03:18:50;;;;;;;8.40;3.30;;;;;;;0.50;64.28;98833.66;1768319;80;21022;-82
2022/01/30 03:21:18;;;;;;;10.15;3.85;;;;;;;0.50;64.47;98819.59;1784187;77;21042;-81
2022/01/30 03:23:44;;;;;;;9.70;3.30;;;;;;;0.48;64.62;98820.85;1781271;80;21042;-82
2022/01/30 03:26:13;;;;;;;6.83;3.33;;;;;;;0.51;64.50;98817.03;1781730;80;21431;-81
2022/01/30 03:28:46;;;;;;;6.83;2.70;;;;;;;0.55;64.57;98807.27;1745459;80;20971;-82
2022/01/30 03:34:11;;;;;;;6.83;3.12;;;;;;;0.53;64.94;98809.38;1761876;78;21074;-86
2022/01/30 03:36:48;;;;;;;7.10;3.10;;;;;;;0.61;64.73;98809.03;1717141;78;21217;31
2022/01/30 03:39:15;;;;;;;8.05;3.55;;;;;;;0.68;64.75;98801.02;1795730;77;21043;-85
2022/01/30 03:41:42;;;;;;;7.03;2.62;;;;;;;0.70;64.90;98812.98;1820273;76;21109;-80
2022/01/30 03:44:10;;;;;;;9.08;3.77;;;;;;;0.78;64.72;98804.95;1777553;76;21051;-81
2022/01/30 03:46:37;;;;;;;8.35;3.35;;;;;;;0.82;64.65;98812.23;1755315;78;21021;-84
2022/01/30 03:49:04;;;;;;;7.33;2.92;;;;;;;0.86;64.50;98808.02;1754477;81;21060;-82
2022/01/30 03:51:32;;;;;;;9.15;3.12;;;;;;;0.93;64.30;98809.34;1756568;81;21032;-84
2022/01/30 03:54:00;;;;;;;8.78;2.70;;;;;;;0.94;63.96;98797.42;1753656;81;21027;-85
2022/01/30 03:56:27;;;;;;;9.40;2.92;;;;;;;1.03;63.83;98782.12;1760690;81;21507;-86
2022/01/30 03:58:53;;;;;;;6.58;2.47;;;;;;;1.02;63.72;98772.73;1756566;81;21001;-85
2022/01/30 04:01:20;;;;;;;5.83;2.83;;;;;;;1.04;63.94;98771.48;1757096;81;20981;-87
2022/01/30 04:03:46;;;;;;;9.98;3.33;;;;;;;1.06;64.01;98777.47;1760470;81;20997;-87
2022/01/30 04:06:14;;;;;;;11.38;2.85;;;;;;;1.10;64.24;98762.56;1760746;81;20973;-82
2022/01/30 04:08:41;;;;;;;7.25;3.50;;;;;;;1.10;64.62;98756.16;1763405;81;21017;-84
2022/01/30 04:11:16;;;;;;;5.53;2.80;;;;;;;0.99;65.33;98755.66;1761892;81;20981;-82
2022/01/30 04:13:45;;;;;;;9.08;3.45;;;;;;;0.97;65.28;98748.36;1761567;81;20978;-85
2022/01/30 04:16:17;;;;;;;9.85;3.22;;;;;;;0.95;66.13;98746.21;1736306;81;21025;-84
2022/01/30 04:18:51;;;;;;;9.13;2.90;;;;;;;0.88;66.94;98735.94;1749898;80;21010;-82
2022/01/30 04:21:29;;;;;;;7.83;3.20;;;;;;;0.88;67.05;98736.79;1800617;77;21084;-81
2022/01/30 04:24:12;;;;;;;8.63;3.37;;;;;;;0.85;67.68;98738.03;1791532;79;20948;-82
2022/01/30 04:26:43;;;;;;;6.72;3.20;;;;;;;0.80;68.29;98744.83;1780142;79;20961;-84
2022/01/30 04:29:28;;;;;;;5.92;2.47;;;;;;;0.84;68.15;98738.05;1803229;79;20957;-81
2022/01/30 04:31:56;;;;;;;23.60;11.18;;;;;;;0.89;67.45;98732.09;1812098;77;21000;-80
2022/01/30 04:34:27;;;;;;;6.08;2.75;;;;;;;0.90;68.35;98736.37;1793769;79;21104;-84
2022/01/30 04:37:03;;;;;;;6.90;3.05;;;;;;;0.91;68.39;98738.51;1795403;79;21108;-82
2022/01/30 04:56:56;;;;;;;5.92;2.80;;;;;;;1.06;67.94;98746.31;1806631;79;21417;-85
2022/01/30 04:59:52;;;;;;;7.03;3.35;;;;;;;1.10;67.91;98749.77;1779881;79;21052;-84
2022/01/30 05:02:12;;;;;;;8.48;3.30;;;;;;;1.11;67.98;98743.34;1802417;79;21019;-85
2022/01/30 05:09:49;;;;;;;5.80;3.15;;;;;;;1.19;67.99;98721.64;1817255;79;21087;-87
2022/01/30 05:12:46;;;;;;;8.18;2.95;;;;;;;1.14;68.52;98727.17;1812432;79;20997;-82
2022/01/30 05:15:07;;;;;;;8.05;3.25;;;;;;;1.16;68.15;98715.23;1796095;79;20940;-87
2022/01/30 05:17:51;;;;;;;8.55;3.47;;;;;;;1.14;68.99;98711.80;1785473;79;21048;-87
2022/01/30 05:20:20;;;;;;;11.38;3.72;;;;;;;1.15;68.94;98719.51;1783692;80;21100;-83
2022/01/30 05:22:54;;;;;;;5.25;2.30;;;;;;;1.19;68.87;98728.04;1745136;79;21500;-88
2022/01/30 05:25:29;;;;;;;8.10;3.15;;;;;;;1.15;70.01;98732.70;1776778;80;20991;-86
2022/01/30 05:27:58;;;;;;;5.55;3.00;;;;;;;1.18;70.12;98730.19;1788913;80;20940;-85
2022/01/30 05:30:30;;;;;;;7.92;3.33;;;;;;;1.18;70.42;98739.99;1754491;80;21000;-82
2022/01/30 05:33:13;;;;;;;;;;;;;;;1.13;71.44;98742.93;1713478;81;21251;-86
2022/01/30 05:35:42;;;;;;;8.68;2.45;;;;;;;1.08;71.87;98747.18;1756537;80;20105;-83
2022/01/30 05:38:26;;;;;;;9.40;3.55;;;;;;;1.10;71.45;98744.64;1760596;79;21548;-82
2022/01/30 05:41:10;;;;;;;7.97;2.67;;;;;;;1.09;72.29;98749.31;1760358;80;21007;-89
2022/01/30 05:43:53;;;;;;;9.90;3.35;;;;;;;1.06;72.16;98759.55;1764701;80;21141;-83
2022/01/30 05:46:36;;;;;;;7.78;3.62;;;;;;;1.10;72.06;98758.29;1775324;80;21022;-86
2022/01/30 05:49:05;;;;;;;6.05;2.95;;;;;;;1.06;72.72;98752.72;1706985;80;20989;-85
2022/01/30 05:51:33;;;;;;;10.00;3.92;;;;;;;1.09;71.87;98737.36;1791727;80;21083;-83
2022/01/30 05:54:04;;;;;;;12.58;3.65;;;;;;;0.96;74.41;98736.42;1793450;80;20971;-85
2022/01/30 05:56:33;;;;;;;11.80;4.53;;;;;;;0.88;75.03;98717.59;1794472;80;21031;-82
2022/01/30 05:59:03;;;;;;;13.00;3.83;;;;;;;0.83;75.35;98721.80;1774884;79;21136;-82
2022/01/30 06:01:30;;;;;;;8.95;3.50;;;;;;;0.79;74.82;98723.91;1794486;79;21082;-80
2022/01/30 06:04:14;;;;;;;12.85;5.10;;;;;;;0.72;75.73;98726.85;1788681;79;20979;-81
2022/01/30 06:06:49;;;;;;;6.03;3.30;;;;;;;0.61;77.68;98729.73;1794160;79;20996;-82
2022/01/30 06:11:44;;;;;;;7.42;2.95;;;;;;;0.52;79.02;98743.30;1815088;79;20977;-81
2022/01/30 06:14:11;;;;;;;7.90;3.70;;;;;;;0.54;77.50;98747.16;1801256;79;20983;-82
2022/01/30 06:16:38;;;;;;;8.40;4.47;;;;;;;0.45;79.98;98738.96;1763446;79;21059;-81
2022/01/30 06:19:06;;;;;;;8.38;3.87;;;;;;;0.41;79.21;98739.77;1770387;80;21092;-81
2022/01/30 06:21:50;;;;;;;13.20;4.42;;;;;;;0.43;77.38;98732.97;1767926;77;21049;-84
2022/01/30 06:24:35;;;;;;;12.75;3.50;;;;;;;0.29;81.85;98743.49;1732039;80;21047;-83
2022/01/30 06:27:16;;;;;;;10.13;4.22;;;;;;;0.32;80.99;98737.11;1734314;79;21141;-79
2022/01/30 06:30:14;;;;;;;11.90;5.20;;;;;;;0.26;82.55;98734.50;1750377;76;21084;31
2022/01/30 06:35:48;;;;;;;8.63;3.87;;;;;;;0.27;81.52;98737.50;1793829;78;21021;-80
2022/01/30 06:38:25;;;;;;;12.25;3.70;;;;;;;0.24;82.44;98739.62;1797683;78;21001;-81
2022/01/30 06:41:00;;;;;;;10.75;3.87;;;;;;;0.13;84.55;98749.70;1808685;75;21032;-82
2022/01/30 06:43:37;;;;;;;9.23;4.62;;;;;;;0.10;85.40;98743.70;1791015;78;21140;-78
2022/01/30 06:46:22;;;;;;;9.08;4.15;;;;;;;0.12;84.03;98742.02;1746716;77;21106;-73
2022/01/30 06:48:53;;;;;;;9.58;4.47;;;;;;;0.12;83.56;98727.95;1683029;79;21146;-81
2022/01/30 06:51:24;;;;;;;7.50;3.95;;;;;;;0.07;86.04;98722.80;1701913;81;21089;-82
2022/01/30 06:54:09;;;;;;;11.28;4.37;;;;;;;0.08;85.83;98724.53;1737954;81;21037;-81
2022/01/30 06:56:53;;;;;;;8.43;4.12;;;;;;;0.05;86.70;98718.09;1737885;80;20991;-82
2022/01/30 06:59:28;;;;;;;10.15;3.70;;;;;;;0.03;86.79;98715.95;1738736;79;21025;-81
2022/01/30 07:02:14;;;;;;;7.75;3.67;;;;;;;0.03;86.71;98710.84;1723457;77;21047;-83
2022/01/30 07:04:45;;;;;;;13.35;4.10;;;;;;;0.05;86.61;98698.08;1729019;77;21029;-79
2022/01/30 07:07:16;;;;;;;11.65;4.72;;;;;;;0.11;84.96;98691.32;1773985;80;21200;-81
2022/01/30 07:09:43;;;;;;;12.85;5.75;;;;;;;0.18;85.38;98692.27;1775608;80;20946;-82
2022/01/30 07:15:03;;;;;;;7.90;4.90;;;;;;;0.18;86.44;98682.03;1788352;79;21012;-81
2022/01/30 07:17:29;;;;;;;11.35;5.60;;;;;;;0.18;86.25;98664.98;1769742;80;21027;-82
2022/01/30 07:20:17;;;;;;;10.48;4.80;;;;;;;0.22;84.85;98670.11;1792819;78;21141;31
2022/01/30 07:22:44;;;;;;;9.98;4.53;;;;;;;0.20;85.68;98675.23;1759424;80;21059;-84
2022/01/30 07:25:11;;;;;;;11.60;5.25;;;;;;;0.18;85.79;98683.31;1788353;76;20962;-76
2022/01/30 07:27:38;;;;;;;8.85;4.12;;;;;;;0.10;87.09;98687.06;1747453;78;21053;-82
2022/01/30 07:30:07;;;;;;;13.78;4.95;;;;;;;0.10;87.22;98683.63;1751158;79;21017;-81
2022/01/30 07:32:34;;;;;;;7.58;4.37;;;;;;;0.15;86.76;98681.98;1747840;77;21677;-83
2022/01/30 07:35:02;;;;;;;11.03;4.58;;;;;;;0.14;87.02;98670.91;1766431;77;20956;-83
2022/01/30 07:37:29;;;;;;;7.95;3.90;;;;;;;0.14;87.20;98673.47;1781331;74;21105;-80
2022/01/30 07:40:00;;;;;;;10.45;4.97;;;;;;;0.15;85.90;98677.73;1814823;76;21051;31
2022/01/30 07:42:27;;;;;;;11.03;4.58;;;;;;;0.12;86.97;98669.16;1725762;81;21060;-82
2022/01/30 07:44:54;;;;;;;7.45;3.95;;;;;;;0.14;87.31;98662.37;1722594;81;20991;-82
2022/01/30 07:47:22;;;;;;;7.95;4.20;;;;;;;0.17;87.08;98656.02;1722724;81;20968;-80
2022/01/30 07:49:51;;;;;;;9.38;3.90;;;;;;;0.24;86.96;98670.98;1754812;77;21015;-80
2022/01/30 07:52:22;;;;;;;9.88;4.50;;;;;;;0.31;86.86;98672.77;1788114;76;21107;-80
2022/01/30 07:55:10;;;;;;;10.25;5.08;;;;;;;0.42;85.81;98667.73;1748729;78;20982;31
2022/01/30 07:57:36;;;;;;;12.00;5.25;;;;;;;0.54;85.74;98661.47;1706015;77;21098;-87
2022/01/30 08:00:05;;;;;;;9.18;4.03;;;;;;;0.63;85.41;98659.39;1756783;81;21013;-84
2022/01/30 08:02:34;;;;;;;11.68;5.08;;;;;;;0.73;84.61;98656.05;1755367;78;21005;-82
2022/01/30 08:05:00;;;;;;;13.65;5.85;;;;;;;0.84;85.09;98646.77;1735751;79;20962;-82
2022/01/30 08:07:27;;;;;;;11.33;4.80;;;;;;;0.97;84.75;98647.25;1729208;79;21020;-80
2022/01/30 08:09:53;;;;;;;8.93;5.10;;;;;;;1.14;83.88;98641.39;1739864;80;20957;-80
2022/01/30 08:12:19;;;;;;;11.40;4.45;;;;;;;1.28;84.13;98637.63;1758935;78;21013;-81
2022/01/30 08:14:46;;;;;;;6.95;3.87;;;;;;;1.44;83.83;98623.18;1758528;77;21009;-88
2022/01/30 08:17:18;;;;;;;9.38;4.42;;;;;;;1.64;83.11;98624.09;1756300;80;21040;-82
2022/01/30 08:19:44;;;;;;;9.85;4.03;;;;;;;1.74;82.06;98628.39;1754602;80;21525;-80
2022/01/30 08:22:09;;;;;;;9.38;4.20;;;;;;;1.83;81.44;98621.58;1755042;80;21004;-81
2022/01/30 08:24:35;;;;;;;9.43;3.98;;;;;;;1.88;80.31;98627.58;1755182;82;20958;-88
2022/01/30 08:27:01;;;;;;;12.65;4.47;;;;;;;1.94;79.78;98619.91;1755200;81;21446;-89
2022/01/30 08:29:27;;;;;;;8.85;4.10;;;;;;;1.90;79.39;98614.34;1755472;81;20986;-88
2022/01/30 08:31:55;;;;;;;7.78;4.05;;;;;;;1.90;79.05;98613.06;1755344;82;20950;-88
2022/01/30 08:34:22;;;;;;;12.13;4.50;;;;;;;1.95;78.84;98612.22;1755464;81;20985;-89
2022/01/30 08:36:48;;;;;;;14.03;5.22;;;;;;;1.97;78.71;98618.20;1755405;81;21045;-88
2022/01/30 08:39:14;;;;;;;11.33;4.78;;;;;;;2.01;78.41;98613.06;1755408;81;21528;-87
2022/01/30 08:41:40;;;;;;;7.60;4.60;;;;;;;2.05;78.30;98609.25;1755178;81;20994;-87
2022/01/30 08:44:07;;;;;;;8.08;3.92;;;;;;;2.11;78.08;98599.00;1755399;81;20965;-87
2022/01/30 08:46:33;;;;;;;7.47;3.67;;;;;;;2.11;77.03;98594.27;1755366;81;20977;-88
2022/01/30 08:49:00;;;;;;;8.53;4.12;;;;;;;2.12;75.67;98582.73;1755538;81;20969;-89
2022/01/30 08:51:26;;;;;;;8.03;3.62;;;;;;;2.14;75.54;98570.77;1755749;81;20985;-89
2022/01/30 08:53:53;;;;;;;9.93;3.72;;;;;;;2.14;74.65;98548.97;1755990;81;20992;-88
2022/01/30 08:56:21;;;;;;;6.95;3.30;;;;;;;2.19;72.60;98567.80;1761773;80;21096;-81
2022/01/30 08:58:49;;;;;;;10.58;3.42;;;;;;;2.31;72.76;98538.72;1783354;80;21001;-83
2022/01/30 09:01:16;;;;;;;8.10;2.50;;;;;;;2.36;69.96;98509.20;1782504;79;20986;-88
2022/01/30 09:03:43;;;;;;;6.62;2.83;;;;;;;2.48;69.58;98512.19;1782520;80;20982;-89
2022/01/30 09:06:10;;;;;;;9.30;3.33;;;;;;;2.55;68.12;98508.32;1783308;80;20931;-89
2022/01/30 09:08:37;;;;;;;9.30;3.25;;;;;;;2.68;67.28;98496.30;1782549;80;20965;-89
2022/01/30 09:11:04;;;;;;;7.37;3.12;;;;;;;2.86;68.46;98500.95;1782147;79;21405;-89
2022/01/30 09:13:31;;;;;;;6.83;2.83;;;;;;;2.89;66.62;98508.22;1780939;80;21010;-89
2022/01/30 09:15:59;;;;;;;6.53;3.22;;;;;;;3.05;66.66;98505.59;1782490;79;20985;-86
2022/01/30 09:18:26;;;;;;;10.98;3.70;;;;;;;3.23;65.36;98519.63;1782336;80;20986;-88
2022/01/30 09:20:54;;;;;;;14.55;4.12;;;;;;;3.39;64.04;98512.70;1760708;80;20971;-90
2022/01/30 09:23:20;;;;;;;11.60;4.20;;;;;;;3.47;62.38;98514.79;1782220;80;21528;-89
2022/01/30 09:25:48;;;;;;;7.15;3.60;;;;;;;3.56;62.00;98523.74;1781894;79;20966;-90
2022/01/30 09:28:15;;;;;;;7.78;3.55;;;;;;;3.63;63.14;98510.41;1782314;80;20946;-89
2022/01/30 09:30:41;;;;;;;9.60;3.85;;;;;;;3.59;61.23;98503.58;1780603;79;21006;-88
2022/01/30 09:33:08;;;;;;;13.58;3.65;;;;;;;3.63;63.44;98510.84;1782331;80;20981;-90
2022/01/30 09:35:34;;;;;;;13.98;3.40;;;;;;;3.56;61.69;98498.45;1775559;79;20970;-87
2022/01/30 09:38:01;;;;;;;8.00;3.27;;;;;;;3.54;62.46;98477.05;1782213;79;21521;-88
2022/01/30 09:40:28;;;;;;;9.98;3.55;;;;;;;3.45;62.15;98459.98;1775851;79;20977;-90
2022/01/30 09:42:57;;;;;;;8.13;3.92;;;;;;;3.38;60.96;98467.30;1766154;80;21005;-88
2022/01/30 09:45:24;;;;;;;8.78;3.75;;;;;;;3.37;61.05;98452.31;1782449;79;21050;-89
2022/01/30 09:47:51;;;;;;;12.50;3.83;;;;;;;3.40;60.46;98459.14;1782556;79;21033;-86
2022/01/30 09:50:20;;;;;;;10.72;4.30;;;;;;;3.45;60.91;98457.85;1779414;80;20934;-90
2022/01/30 09:52:47;;;;;;;5.75;3.20;;;;;;;3.45;59.77;98439.86;1782641;79;21442;-90
2022/01/30 09:55:15;;;;;;;8.40;3.60;;;;;;;3.57;60.35;98430.77;1782655;79;20958;-90
2022/01/30 09:57:43;;;;;;;11.97;4.28;;;;;;;3.61;59.76;98433.73;1768471;79;21554;-90
2022/01/30 10:00:11;;;;;;;6.42;3.50;;;;;;;3.65;59.92;98418.71;1740239;81;21006;-90
2022/01/30 10:02:43;;;;;;;10.40;3.98;;;;;;;3.63;59.11;98405.02;1727198;81;21518;-87
2022/01/30 10:05:12;;;;;;;9.70;4.03;;;;;;;3.65;60.12;98403.28;1740369;81;21010;-90
2022/01/30 10:07:55;;;;;;;8.45;4.05;;;;;;;3.58;59.62;98388.77;1734683;81;21047;-88
2022/01/30 10:10:19;;;;;;;12.88;4.92;;;;;;;3.61;60.60;98394.34;1734496;81;20987;-88
2022/01/30 10:13:08;;;;;;;12.33;4.30;;;;;;;3.58;60.25;98402.91;1740403;81;20971;-89
2022/01/30 10:15:56;;;;;;;12.30;3.77;;;;;;;3.58;60.82;98405.47;1739048;81;20962;-86
2022/01/30 10:18:26;;;;;;;10.90;4.92;;;;;;;3.61;60.63;98403.33;1740377;81;20972;-90
2022/01/30 10:20:53;;;;;;;12.15;4.67;;;;;;;3.74;60.41;98408.77;1730321;81;20965;-87
2022/01/30 10:23:23;;;;;;;11.73;4.80;;;;;;;3.86;60.64;98380.41;1742468;81;20956;-90
2022/01/30 10:25:54;;;;;;;11.25;5.42;;;;;;;3.93;60.44;98355.47;1736408;81;20991;-89
2022/01/30 10:28:32;;;;;;;15.30;4.85;;;;;;;4.01;60.70;98369.09;1726808;81;21046;-90
2022/01/30 10:31:08;;;;;;;11.00;4.60;;;;;;;4.13;60.83;98367.67;1740437;81;20959;-90
2022/01/30 10:33:47;;;;;;;9.50;4.85;;;;;;;4.27;60.08;98378.26;1723917;81;20971;-86
2022/01/30 10:36:23;;;;;;;11.40;4.83;;;;;;;4.39;60.26;98376.38;1744764;81;20991;-89
2022/01/30 10:39:17;;;;;;;13.55;4.70;;;;;;;4.51;60.32;98358.66;1739253;81;21027;-89
2022/01/30 10:41:53;;;;;;;10.78;5.20;;;;;;;4.55;60.66;98360.76;1739946;81;21038;-89
2022/01/30 10:44:14;;;;;;;15.93;4.27;;;;;;;4.68;61.10;98367.91;1730171;81;20987;-87
2022/01/30 10:46:51;;;;;;;10.35;4.80;;;;;;;4.78;60.95;98370.77;1727263;81;21034;-87
2022/01/30 10:49:21;;;;;;;11.10;4.85;;;;;;;4.83;61.18;98353.95;1746032;81;21451;-89
2022/01/30 10:51:57;;;;;;;8.95;4.53;;;;;;;4.89;61.69;98380.47;1770660;81;20974;-90
2022/01/30 10:54:29;;;;;;;14.38;5.20;;;;;;;4.98;62.25;98338.30;1723219;80;20990;-89
2022/01/30 10:57:09;;;;;;;13.50;5.12;;;;;;;5.09;61.57;98333.84;1759870;79;21049;-88
2022/01/30 10:59:42;;;;;;;8.95;4.50;;;;;;;5.23;61.24;98323.73;1781263;80;20978;-88
2022/01/30 11:02:22;;;;;;;12.25;4.85;;;;;;;5.33;61.46;98331.73;1781317;80;21006;-90
2022/01/30 11:04:50;;;;;;;9.90;4.17;;;;;;;5.29;61.81;98327.50;1780017;80;21004;-89
2022/01/30 11:07:21;;;;;;;14.07;5.12;;;;;;;5.27;62.90;98315.08;1782015;80;20978;-87
2022/01/30 11:10:23;;;;;;;6.75;3.85;;;;;;;5.17;62.72;98320.40;1770948;80;20957;-89
2022/01/30 11:12:56;;;;;;;9.13;3.98;;;;;;;5.17;62.84;98294.63;1774686;80;20985;-89
2022/01/30 11:15:33;;;;;;;9.10;3.50;;;;;;;5.30;61.14;98300.87;1776276;80;20970;-90
2022/01/30 11:17:50;;;;;;;7.87;3.52;;;;;;;5.42;60.42;98275.33;1780045;80;20977;-88
2022/01/30 11:20:17;;;;;;;9.13;3.77;;;;;;;5.47;59.50;98265.77;1781843;80;21449;-89
2022/01/30 11:22:47;;;;;;;10.68;3.85;;;;;;;5.58;59.06;98263.86;1782294;79;21399;-89
2022/01/30 11:25:16;;;;;;;7.17;3.70;;;;;;;5.71;58.38;98264.46;1781684;80;20941;-90
2022/01/30 11:27:46;;;;;;;7.10;3.40;;;;;;;5.84;57.26;98245.30;1763680;80;20990;-89
2022/01/30 11:30:15;;;;;;;6.37;3.20;;;;;;;5.90;56.75;98231.44;1781462;79;21029;-90
2022/01/30 11:32:43;;;;;;;9.65;3.22;;;;;;;5.88;56.09;98262.87;1763228;80;21110;-88
2022/01/30 11:35:10;;;;;;;9.43;3.37;;;;;;;6.00;56.10;98277.29;1781961;80;20985;-86
2022/01/30 11:37:38;;;;;;;7.08;3.33;;;;;;;6.09;55.88;98261.19;1780835;79;20978;-87
2022/01/30 11:40:15;;;;;;;7.53;3.50;;;;;;;6.17;54.97;98264.91;1781258;80;20966;-88
2022/01/30 11:42:45;;;;;;;8.38;3.60;;;;;;;6.31;55.32;98256.42;1760977;80;20985;-89
2022/01/30 11:45:19;;;;;;;7.30;3.70;;;;;;;6.40;54.60;98260.53;1782047;80;21010;-87
2022/01/30 11:48:04;;;;;;;9.23;3.30;;;;;;;6.46;54.03;98284.08;1759413;80;20959;-88
2022/01/30 11:50:32;;;;;;;;;;;;;;;6.56;54.66;98250.71;1781804;80;20990;-83
2022/01/30 11:53:15;;;;;;;12.70;3.22;;;;;;;6.60;53.49;98252.34;1782300;80;20115;-83
2022/01/30 11:55:50;;;;;;;7.50;2.90;;;;;;;6.76;54.01;98258.01;1780731;80;20994;-90
2022/01/30 11:58:38;;;;;;;6.50;2.67;;;;;;;6.72;54.45;98275.30;1773849;79;21017;-90
2022/01/30 12:01:35;;;;;;;9.25;3.58;;;;;;;6.70;54.84;98251.24;1779102;80;20950;-89
2022/01/30 12:04:08;;;;;;;5.42;3.02;;;;;;;6.95;54.66;98249.39;1772448;80;20954;-86
2022/01/30 12:06:38;;;;;;;7.40;3.40;;;;;;;7.02;54.95;98253.96;1779549;79;21005;-90
2022/01/30 12:09:19;;;;;;;8.75;3.10;;;;;;;6.84;56.26;98244.91;1782257;79;20946;-91
2022/01/30 12:11:53;;;;;;;8.48;3.75;;;;;;;7.18;57.71;98241.06;1781267;80;21017;-87
2022/01/30 12:14:23;;;;;;;;;;;;;;;7.84;53.92;98241.06;1775840;80;20926;-84
2022/01/30 12:17:04;;;;;;;8.43;2.92;;;;;;;8.29;51.24;98246.67;1781872;80;20689;-88
2022/01/30 12:19:45;;;;;;;9.55;3.10;;;;;;;8.91;52.31;98261.67;1778705;79;20950;-87
2022/01/30 12:22:27;;;;;;;9.23;3.33;;;;;;;9.41;50.18;98235.84;1781582;78;21005;-87
2022/01/30 12:25:06;;;;;;;7.40;3.12;;;;;;;9.79;47.06;98250.53;1777959;80;20993;-87
2022/01/30 12:27:55;;;;;;;10.03;3.33;;;;;;;9.50;46.74;98269.70;1732052;82;21007;-87
2022/01/30 12:30:41;;;;;;;20.48;3.85;;;;;;;9.60;47.66;98265.05;1739810;81;21018;-90
2022/01/30 12:33:38;;;;;;;8.53;4.12;;;;;;;9.44;48.11;98261.67;1742707;81;21495;-87
2022/01/30 12:36:14;;;;;;;8.28;4.15;;;;;;;9.56;47.90;98260.41;1713178;83;20979;-85
2022/01/30 12:38:41;;;;;;;7.37;4.17;;;;;;;9.90;49.14;98259.23;1730713;83;20982;-85
2022/01/30 12:41:17;;;;;;;11.55;4.80;;;;;;;9.86;49.01;98260.24;1731140;83;21019;-86
2022/01/30 12:43:43;;;;;;;12.50;4.60;;;;;;;9.72;51.41;98256.37;1736416;82;20987;-86
2022/01/30 12:46:12;;;;;;;10.08;4.30;;;;;;;9.93;51.35;98270.81;1739425;82;21020;-85
2022/01/30 12:48:39;;;;;;;8.05;4.55;;;;;;;10.16;51.17;98273.87;1739243;82;21472;-86
2022/01/30 12:51:12;;;;;;;9.63;5.00;;;;;;;10.28;50.76;98263.02;1739372;82;20956;-89
2022/01/30 12:53:37;;;;;;;12.30;6.53;;;;;;;10.64;49.90;98260.42;1737513;81;20984;-86
2022/01/30 12:56:05;;;;;;;10.35;5.28;;;;;;;10.76;51.28;98252.14;1771207;80;21504;-84
2022/01/30 12:58:39;;;;;;;9.15;4.47;;;;;;;10.80;48.75;98252.88;1786024;79;20942;-85
2022/01/30 13:01:14;;;;;;;11.35;4.95;;;;;;;10.55;49.19;98250.78;1786873;79;21489;-85
2022/01/30 13:03:42;;;;;;;11.00;4.62;;;;;;;10.76;50.76;98236.54;1787793;79;21074;-84